Time,TemperatureF,DewpointF,PressureIn,WindDirection,WindDirectionDegrees,WindSpeedMPH,WindSpeedGustMPH,Humidity,HourlyPrecipIn,Conditions,Clouds,dailyrainin,SoftwareType,DateUTC
2013-08-26 00:14:00,78.0,74.0,30.11,NNE,24,1.0,4.0,88,0.00,,,0.00,,2013-08-26 04:14:00,
2013-08-26 00:53:00,78.0,74.0,30.11,NE,40,0.0,3.0,87,0.00,,,0.00,,2013-08-26 04:53:00,
2013-08-26 01:13:00,78.0,74.0,30.11,NE,49,1.0,3.0,87,0.00,,,0.00,,2013-08-26 05:13:00,
2013-08-26 01:23:00,78.0,74.0,30.10,NE,49,0.0,0.0,87,0.00,,,0.00,,2013-08-26 05:23:00,
2013-08-26 01:43:00,78.0,74.0,30.09,NE,49,0.0,0.0,87,0.00,,,0.00,,2013-08-26 05:43:00,
2013-08-26 01:52:00,78.0,74.0,30.08,NE,49,1.0,3.0,87,0.00,,,0.00,,2013-08-26 05:52:00,
2013-08-26 02:12:00,78.0,74.0,30.08,NNE,30,1.0,2.0,87,0.00,,,0.00,,2013-08-26 06:12:00,
2013-08-26 02:22:00,78.0,74.0,30.07,NNE,20,0.0,0.0,87,0.00,,,0.00,,2013-08-26 06:22:00,
2013-08-26 02:42:00,78.0,74.0,30.07,NNE,28,2.0,5.0,88,0.00,,,0.00,,2013-08-26 06:42:00,
2013-08-26 02:52:00,78.0,74.0,30.07,NE,41,1.0,4.0,89,0.00,,,0.00,,2013-08-26 06:52:00,
2013-08-26 03:22:00,77.0,74.0,30.06,NNE,24,2.0,5.0,89,0.00,,,0.00,,2013-08-26 07:22:00,
2013-08-26 03:52:00,77.0,74.0,30.06,NE,37,0.0,0.0,90,0.00,,,0.00,,2013-08-26 07:52:00,
2013-08-26 04:12:00,77.0,74.0,30.05,NE,34,0.0,3.0,91,0.00,,,0.00,,2013-08-26 08:12:00,
2013-08-26 04:22:00,77.0,74.0,30.05,NNE,27,2.0,8.0,91,0.00,,,0.00,,2013-08-26 08:22:00,
2013-08-26 04:52:00,77.0,74.0,30.05,NE,55,1.0,6.0,91,0.00,,,0.00,,2013-08-26 08:52:00,
2013-08-26 05:11:00,76.0,73.0,30.05,NNE,28,1.0,6.0,91,0.00,,,0.00,,2013-08-26 09:11:00,
2013-08-26 05:22:00,76.0,73.0,30.06,NE,36,0.0,4.0,91,0.00,,,0.00,,2013-08-26 09:22:00,
2013-08-26 05:54:00,76.0,74.0,30.06,NNE,21,2.0,5.0,92,0.00,,,0.00,,2013-08-26 09:54:00,
2013-08-26 06:12:00,76.0,74.0,30.06,NE,36,0.0,3.0,92,0.00,,,0.00,,2013-08-26 10:12:00,
2013-08-26 06:23:00,76.0,74.0,30.06,NNE,30,0.0,1.0,92,0.00,,,0.00,,2013-08-26 10:23:00,
2013-08-26 06:52:00,76.0,74.0,30.07,ENE,63,1.0,4.0,92,0.00,,,0.00,,2013-08-26 10:52:00,
2013-08-26 07:22:00,76.0,74.0,30.06,NNE,31,0.0,3.0,93,0.00,,,0.00,,2013-08-26 11:22:00,
2013-08-26 07:52:00,76.0,74.0,30.07,NE,43,0.0,5.0,93,0.00,,,0.00,,2013-08-26 11:52:00,
2013-08-26 08:12:00,76.0,74.0,30.07,NE,41,2.0,7.0,93,0.00,,,0.00,,2013-08-26 12:12:00,
2013-08-26 08:22:00,76.0,74.0,30.07,NNE,22,3.0,5.0,93,0.00,,,0.00,,2013-08-26 12:22:00,
2013-08-26 08:52:00,77.0,74.0,30.08,NNE,16,0.0,5.0,92,0.00,,,0.00,,2013-08-26 12:52:00,
2013-08-26 09:12:00,78.0,75.0,30.08,NNE,32,2.0,4.0,91,0.00,,,0.00,,2013-08-26 13:12:00,
2013-08-26 09:22:00,79.0,76.0,30.08,NE,35,1.0,6.0,90,0.00,,,0.00,,2013-08-26 13:22:00,
2013-08-26 09:52:00,80.0,76.0,30.09,NE,38,4.0,8.0,87,0.00,,,0.00,,2013-08-26 13:52:00,
2013-08-26 10:22:00,83.0,77.0,30.08,East,80,0.0,7.0,83,0.00,,,0.00,,2013-08-26 14:22:00,
2013-08-26 10:52:00,85.0,77.0,30.08,ESE,106,1.0,7.0,77,0.00,,,0.00,,2013-08-26 14:52:00,
2013-08-26 11:12:00,86.0,77.0,30.08,ENE,73,2.0,7.0,75,0.00,,,0.00,,2013-08-26 15:12:00,
2013-08-26 11:22:00,86.0,75.0,30.08,NNE,28,4.0,8.0,71,0.00,,,0.00,,2013-08-26 15:22:00,
2013-08-26 11:47:00,87.0,77.0,30.08,NE,55,1.0,7.0,73,0.00,,,0.00,,2013-08-26 15:47:00,
2013-08-26 11:59:00,87.0,76.0,30.08,NNE,23,2.0,9.0,69,0.00,,,0.00,,2013-08-26 15:59:00,
2013-08-26 12:29:00,88.0,75.0,30.09,SE,129,1.0,6.0,66,0.00,,,0.00,,2013-08-26 16:29:00,
2013-08-26 12:59:00,89.0,75.0,30.08,ENE,76,4.0,8.0,64,0.00,,,0.00,,2013-08-26 16:59:00,
2013-08-26 13:24:00,90.0,75.0,30.06,NNE,25,2.0,9.0,62,0.00,,,0.00,,2013-08-26 17:24:00,
2013-08-26 13:53:00,91.0,76.0,30.05,SE,140,2.0,5.0,61,0.00,,,0.00,,2013-08-26 17:53:00,
2013-08-26 14:12:00,91.0,74.0,30.05,NE,55,4.0,8.0,58,0.00,,,0.00,,2013-08-26 18:12:00,
2013-08-26 14:22:00,91.0,75.0,30.04,NE,51,2.0,7.0,60,0.00,,,0.00,,2013-08-26 18:22:00,
2013-08-26 14:52:00,92.0,76.0,30.03,NNE,28,0.0,9.0,60,0.00,,,0.00,,2013-08-26 18:52:00,
2013-08-26 15:11:00,91.0,74.0,30.02,NE,34,2.0,7.0,57,0.00,,,0.00,,2013-08-26 19:11:00,
2013-08-26 15:22:00,91.0,73.0,30.01,NNE,21,1.0,5.0,56,0.00,,,0.00,,2013-08-26 19:22:00,
2013-08-26 15:52:00,88.0,76.0,30.01,NW,323,0.0,2.0,67,0.00,,,0.00,,2013-08-26 19:52:00,
2013-08-26 16:11:00,88.0,76.0,30.00,North,350,2.0,6.0,67,0.00,,,0.00,,2013-08-26 20:11:00,
2013-08-26 16:22:00,87.0,76.0,29.99,NNW,344,3.0,5.0,69,0.00,,,0.00,,2013-08-26 20:22:00,
2013-08-26 16:43:00,86.0,75.0,29.99,NNW,344,1.0,7.0,70,0.00,,,0.00,,2013-08-26 20:43:00,
2013-08-26 16:52:00,86.0,75.0,29.98,North,350,1.0,6.0,71,0.00,,,0.00,,2013-08-26 20:52:00,
2013-08-26 17:22:00,87.0,76.0,29.97,NNE,24,0.0,3.0,70,0.00,,,0.00,,2013-08-26 21:22:00,
2013-08-26 17:55:00,80.0,75.0,29.98,NNE,27,1.0,11.0,85,0.13,,,0.13,,2013-08-26 21:55:00,
2013-08-26 18:16:00,79.0,75.0,29.97,NNE,25,1.0,3.0,88,0.13,,,0.13,,2013-08-26 22:16:00,
2013-08-26 18:26:00,79.0,75.0,29.98,North,9,0.0,3.0,89,0.13,,,0.13,,2013-08-26 22:26:00,
2013-08-26 18:53:00,80.0,76.0,29.98,North,350,1.0,3.0,87,0.00,,,0.13,,2013-08-26 22:53:00,
2013-08-26 19:22:00,80.0,76.0,29.99,NW,313,1.0,5.0,88,0.00,,,0.13,,2013-08-26 23:22:00,
2013-08-26 19:52:00,81.0,76.0,30.00,North,360,2.0,6.0,86,0.00,,,0.13,,2013-08-26 23:52:00,
2013-08-26 20:21:00,80.0,75.0,29.99,NNE,17,0.0,4.0,84,0.00,,,0.13,,2013-08-27 00:21:00,
2013-08-26 20:52:00,80.0,75.0,30.01,NNE,22,0.0,0.0,85,0.00,,,0.13,,2013-08-27 00:52:00,
2013-08-26 21:22:00,78.0,72.0,30.02,South,177,6.0,15.0,83,0.00,,,0.13,,2013-08-27 01:22:00,
2013-08-26 21:52:00,76.0,72.0,30.02,SE,129,2.0,10.0,88,0.00,,,0.13,,2013-08-27 01:52:00,
2013-08-26 22:22:00,75.0,72.0,30.01,NE,40,0.0,2.0,90,0.01,,,0.14,,2013-08-27 02:22:00,
2013-08-26 22:52:00,75.0,72.0,30.02,NE,52,0.0,0.0,90,0.01,,,0.14,,2013-08-27 02:52:00,
2013-08-26 23:23:00,75.0,72.0,30.01,NNE,17,2.0,9.0,90,0.00,,,0.14,,2013-08-27 03:23:00,
2013-08-26 23:44:00,75.0,72.0,30.02,NNE,32,3.0,6.0,91,0.00,,,0.14,,2013-08-27 03:44:00,
2013-08-26 23:58:00,75.0,73.0,30.02,NE,38,2.0,4.0,92,0.00,,,0.14,,2013-08-27 03:58:00,